Time;durP1;ratioP1;P1;durP2;ratioP2;P2;SDS_P1;SDS_P2;PMS_P1;PMS_P2;Temp;Humidity;BMP_temperature;BMP_pressure;BME280_temperature;BME280_humidity;BME280_pressure;Samples;Min_cycle;Max_cycle;Signal;HPM_P1;HPM_P2
2023/03/14 00:01:01;;;;;;;2.30;1.40;;;;;;;;;;4973890;28;20218;-87
2023/03/14 00:03:28;;;;;;;1.87;1.40;;;;;;;;;;4948195;28;20226;-86
2023/03/14 00:05:56;;;;;;;1.83;1.40;;;;;;;;;;4951604;28;20226;-86
2023/03/14 00:08:24;;;;;;;2.70;1.40;;;;;;;;;;4968724;28;20226;-86
2023/03/14 00:10:52;;;;;;;2.77;1.57;;;;;;;;;;4985151;28;20710;-86
2023/03/14 00:13:18;;;;;;;1.43;1.20;;;;;;;;;;4954880;28;20229;-86
2023/03/14 00:15:50;;;;;;;2.23;1.40;;;;;;;;;;4941046;28;20222;-86
2023/03/14 00:18:19;;;;;;;2.03;1.43;;;;;;;;;;4966051;28;20257;-87
2023/03/14 00:20:45;;;;;;;3.13;1.63;;;;;;;;;;4948218;28;20218;-86
2023/03/14 00:23:10;;;;;;;3.67;1.60;;;;;;;;;;4933793;28;21016;-85
2023/03/14 00:25:38;;;;;;;4.73;1.60;;;;;;;;;;4975761;28;20258;-85
2023/03/14 00:28:06;;;;;;;4.93;1.60;;;;;;;;;;4981939;28;20836;-86
2023/03/14 00:30:31;;;;;;;2.30;1.37;;;;;;;;;;4924609;28;20228;-86
2023/03/14 00:32:57;;;;;;;3.17;1.50;;;;;;;;;;4949687;28;20281;-86
2023/03/14 00:35:22;;;;;;;2.90;1.50;;;;;;;;;;4955793;28;20226;-86
2023/03/14 00:37:48;;;;;;;3.70;1.60;;;;;;;;;;4952811;28;20272;-85
2023/03/14 00:40:16;;;;;;;3.93;1.47;;;;;;;;;;4957410;28;20698;-87
2023/03/14 00:42:43;;;;;;;2.53;1.50;;;;;;;;;;4949892;28;20257;-87
2023/03/14 00:45:11;;;;;;;3.23;1.30;;;;;;;;;;4968749;28;20417;-88
2023/03/14 00:47:39;;;;;;;4.07;1.60;;;;;;;;;;4929542;28;20225;-87
2023/03/14 00:50:07;;;;;;;3.67;1.80;;;;;;;;;;4953198;28;20227;-88
2023/03/14 00:52:33;;;;;;;1.87;1.30;;;;;;;;;;4960276;28;20226;-86
2023/03/14 00:55:01;;;;;;;3.93;1.73;;;;;;;;;;4967664;28;20222;-85
2023/03/14 00:57:27;;;;;;;1.97;1.40;;;;;;;;;;4949317;28;20219;-86
2023/03/14 00:59:54;;;;;;;3.47;1.60;;;;;;;;;;4982780;28;20221;-85
2023/03/14 01:02:23;;;;;;;2.67;1.50;;;;;;;;;;4950388;28;20696;-84
2023/03/14 01:04:53;;;;;;;5.47;1.80;;;;;;;;;;4967663;28;20224;-84
2023/03/14 01:07:24;;;;;;;2.27;1.47;;;;;;;;;;4968647;28;20665;-86
2023/03/14 01:09:52;;;;;;;4.37;1.53;;;;;;;;;;4969036;28;20831;-86
2023/03/14 01:12:18;;;;;;;3.23;1.57;;;;;;;;;;4947414;28;20603;-86
2023/03/14 01:14:43;;;;;;;2.70;1.50;;;;;;;;;;4970249;28;20282;-86
2023/03/14 01:17:12;;;;;;;3.07;1.50;;;;;;;;;;4933887;28;20229;-85
2023/03/14 01:19:44;;;;;;;3.63;1.80;;;;;;;;;;4953001;28;20290;-86
2023/03/14 01:22:10;;;;;;;3.47;1.80;;;;;;;;;;4966412;28;20227;-86
2023/03/14 01:24:37;;;;;;;4.63;2.30;;;;;;;;;;4962651;28;20222;-86
2023/03/14 01:27:05;;;;;;;8.57;4.70;;;;;;;;;;4981451;28;20764;-86
2023/03/14 01:29:30;;;;;;;4.00;2.40;;;;;;;;;;4963102;28;20233;-85
2023/03/14 01:31:56;;;;;;;5.43;1.77;;;;;;;;;;4964699;28;20211;-86
2023/03/14 01:34:22;;;;;;;2.87;2.00;;;;;;;;;;4946901;28;20591;-85
2023/03/14 01:36:48;;;;;;;3.13;1.70;;;;;;;;;;4969952;28;20268;-87
2023/03/14 01:39:14;;;;;;;3.40;1.90;;;;;;;;;;4953167;28;20230;-84
2023/03/14 01:41:40;;;;;;;3.47;1.60;;;;;;;;;;4969929;28;20309;-85
2023/03/14 01:44:09;;;;;;;4.23;1.83;;;;;;;;;;4947425;28;20717;-86
2023/03/14 01:46:41;;;;;;;4.70;1.80;;;;;;;;;;4953560;28;20225;-84
2023/03/14 01:49:10;;;;;;;4.40;1.70;;;;;;;;;;4962383;28;20234;-85
2023/03/14 01:51:51;;;;;;;2.77;1.40;;;;;;;;;;4976527;28;20286;-85
2023/03/14 01:54:46;;;;;;;2.57;1.77;;;;;;;;;;4959523;28;20282;-85
2023/03/14 01:57:24;;;;;;;2.37;1.70;;;;;;;;;;4960325;28;20222;-87
2023/03/14 01:59:56;;;;;;;5.60;1.63;;;;;;;;;;4950097;28;20756;-86
2023/03/14 02:02:21;;;;;;;3.27;1.60;;;;;;;;;;4969173;28;20235;-86
2023/03/14 02:04:47;;;;;;;7.47;2.00;;;;;;;;;;4954585;28;20226;-87
2023/03/14 02:07:16;;;;;;;2.87;1.50;;;;;;;;;;4952831;28;20635;-87
2023/03/14 02:09:50;;;;;;;2.97;1.60;;;;;;;;;;4938725;28;20213;-87
2023/03/14 02:12:22;;;;;;;3.53;1.83;;;;;;;;;;4956539;28;20238;-87
2023/03/14 02:15:06;;;;;;;3.93;1.60;;;;;;;;;;4948295;28;20222;-87
2023/03/14 02:18:01;;;;;;;5.00;1.60;;;;;;;;;;4962467;28;20222;-85
2023/03/14 02:20:59;;;;;;;3.33;1.40;;;;;;;;;;4963466;28;20966;-84
2023/03/14 02:23:51;;;;;;;3.20;1.43;;;;;;;;;;4985797;28;20241;-87
2023/03/14 02:26:25;;;;;;;2.37;1.43;;;;;;;;;;4939794;28;20226;-86
2023/03/14 02:28:53;;;;;;;3.33;1.63;;;;;;;;;;4984513;28;20237;-84
2023/03/14 02:31:18;;;;;;;2.53;1.80;;;;;;;;;;4955306;28;20258;-86
2023/03/14 02:33:44;;;;;;;2.73;1.60;;;;;;;;;;4963633;28;20230;-86
2023/03/14 02:36:12;;;;;;;3.50;1.47;;;;;;;;;;4960962;28;20233;-85
2023/03/14 02:38:40;;;;;;;3.27;1.60;;;;;;;;;;4931274;28;20238;-88
2023/03/14 02:41:06;;;;;;;3.87;1.90;;;;;;;;;;4966352;28;20230;-85
2023/03/14 02:43:39;;;;;;;3.40;1.60;;;;;;;;;;4939788;28;20690;-85
2023/03/14 02:46:11;;;;;;;3.67;1.43;;;;;;;;;;4964905;28;20226;-83
2023/03/14 02:48:53;;;;;;;4.83;1.20;;;;;;;;;;4973371;28;20218;-85
2023/03/14 02:51:20;;;;;;;2.40;1.30;;;;;;;;;;4956575;28;20524;-88
2023/03/14 02:53:47;;;;;;;1.73;1.37;;;;;;;;;;4931626;28;20698;-86
2023/03/14 02:56:14;;;;;;;2.97;1.50;;;;;;;;;;4944517;28;20305;-86
2023/03/14 02:58:39;;;;;;;1.97;1.50;;;;;;;;;;4934641;28;20236;-83
2023/03/14 03:01:19;;;;;;;3.97;1.60;;;;;;;;;;4949423;28;20226;-84
2023/03/14 03:03:44;;;;;;;6.07;1.67;;;;;;;;;;4964130;28;20325;-82
2023/03/14 03:06:11;;;;;;;4.53;1.77;;;;;;;;;;4951916;28;20218;-85
2023/03/14 03:08:39;;;;;;;2.43;1.47;;;;;;;;;;4967903;28;20225;-86
2023/03/14 03:11:05;;;;;;;3.43;1.67;;;;;;;;;;4970489;28;20229;-87
2023/03/14 03:13:32;;;;;;;3.40;1.70;;;;;;;;;;4980773;28;20217;-86
2023/03/14 03:16:00;;;;;;;4.30;1.40;;;;;;;;;;4967715;28;20238;-87
2023/03/14 03:18:30;;;;;;;2.73;1.40;;;;;;;;;;4958968;28;20261;-85
2023/03/14 03:21:02;;;;;;;4.23;1.53;;;;;;;;;;4936526;28;20245;-87
2023/03/14 03:23:28;;;;;;;3.23;1.50;;;;;;;;;;4945269;28;20226;-87
2023/03/14 03:25:54;;;;;;;2.60;1.30;;;;;;;;;;4967368;28;20237;-87
2023/03/14 03:28:20;;;;;;;3.27;1.43;;;;;;;;;;4923727;28;20230;-84
2023/03/14 03:30:46;;;;;;;4.50;1.40;;;;;;;;;;4972556;28;20226;-85
2023/03/14 03:33:11;;;;;;;3.47;1.40;;;;;;;;;;4988532;28;20233;-87
2023/03/14 03:35:47;;;;;;;4.53;1.50;;;;;;;;;;4967410;28;20244;-84
2023/03/14 03:38:16;;;;;;;3.37;1.30;;;;;;;;;;4985702;28;20202;-85
2023/03/14 03:40:46;;;;;;;5.07;1.47;;;;;;;;;;4945635;28;20607;-86
2023/03/14 03:43:11;;;;;;;3.27;1.33;;;;;;;;;;4982772;28;20301;-85
2023/03/14 03:45:40;;;;;;;4.80;1.33;;;;;;;;;;4974045;28;20289;-86
2023/03/14 03:48:06;;;;;;;3.60;1.40;;;;;;;;;;4972583;28;20698;-85
2023/03/14 03:50:31;;;;;;;4.47;1.50;;;;;;;;;;4974829;28;20586;-86
2023/03/14 03:52:57;;;;;;;2.17;1.23;;;;;;;;;;4950756;28;20224;-87
2023/03/14 03:55:23;;;;;;;3.37;1.63;;;;;;;;;;4957357;28;20664;-86
2023/03/14 03:57:51;;;;;;;5.63;1.50;;;;;;;;;;4962628;28;20214;-85
2023/03/14 04:00:18;;;;;;;4.10;1.63;;;;;;;;;;4988292;28;20272;-85
2023/03/14 04:02:44;;;;;;;4.93;1.47;;;;;;;;;;4960244;28;20226;-86
2023/03/14 04:05:16;;;;;;;4.27;1.67;;;;;;;;;;4955946;28;20223;-85
2023/03/14 04:07:49;;;;;;;2.37;1.33;;;;;;;;;;4949260;28;20240;-87
2023/03/14 04:10:24;;;;;;;3.47;1.40;;;;;;;;;;4949167;28;20221;-83
2023/03/14 04:13:08;;;;;;;4.53;1.67;;;;;;;;;;4968478;28;20785;-84
2023/03/14 04:15:37;;;;;;;2.53;1.30;;;;;;;;;;4946781;28;20223;-84
2023/03/14 04:18:17;;;;;;;2.60;1.33;;;;;;;;;;4964684;28;20228;-85
2023/03/14 04:20:43;;;;;;;3.33;1.40;;;;;;;;;;4978652;28;20656;-86
2023/03/14 04:23:10;;;;;;;2.67;1.40;;;;;;;;;;4992763;28;20301;-87
2023/03/14 04:25:38;;;;;;;3.20;1.17;;;;;;;;;;4974438;28;20230;-88
2023/03/14 04:28:04;;;;;;;3.00;1.10;;;;;;;;;;4940625;28;20633;-85
2023/03/14 04:30:32;;;;;;;2.70;1.03;;;;;;;;;;4935227;28;20233;-85
2023/03/14 04:33:04;;;;;;;3.47;1.20;;;;;;;;;;4945512;28;20226;-86
2023/03/14 04:35:33;;;;;;;2.83;1.10;;;;;;;;;;4961963;28;20246;-84
2023/03/14 04:38:04;;;;;;;1.57;0.93;;;;;;;;;;4970868;28;20218;-86
2023/03/14 04:40:32;;;;;;;2.37;1.13;;;;;;;;;;4959095;28;20202;-86
2023/03/14 04:43:05;;;;;;;5.60;1.40;;;;;;;;;;4945252;28;20308;-84
2023/03/14 04:45:33;;;;;;;1.97;0.87;;;;;;;;;;4932245;28;20245;-88
2023/03/14 04:48:03;;;;;;;3.23;1.10;;;;;;;;;;4956819;28;20806;-82
2023/03/14 04:50:34;;;;;;;1.40;1.00;;;;;;;;;;4937984;28;20308;-84
2023/03/14 04:53:00;;;;;;;2.17;1.07;;;;;;;;;;4968487;28;20222;-87
2023/03/14 04:55:28;;;;;;;1.73;0.90;;;;;;;;;;4955418;28;20233;-86
2023/03/14 04:57:55;;;;;;;1.93;0.90;;;;;;;;;;4936481;28;20272;-85
2023/03/14 05:00:24;;;;;;;2.00;1.00;;;;;;;;;;4967364;28;20309;-84
2023/03/14 05:02:49;;;;;;;2.33;0.90;;;;;;;;;;4956369;28;20892;-84
2023/03/14 05:05:38;;;;;;;3.40;1.00;;;;;;;;;;4969037;28;20253;-86
2023/03/14 05:08:32;;;;;;;2.43;1.10;;;;;;;;;;4965696;28;20233;-85
2023/03/14 05:11:17;;;;;;;4.80;1.13;;;;;;;;;;4945446;28;20232;-87
2023/03/14 05:14:09;;;;;;;2.23;1.00;;;;;;;;;;4975695;28;20218;-85
2023/03/14 05:17:11;;;;;;;2.03;1.07;;;;;;;;;;4940838;28;20230;-87
2023/03/14 05:20:12;;;;;;;1.70;1.17;;;;;;;;;;4900232;28;20232;-86
2023/03/14 05:22:54;;;;;;;4.53;1.43;;;;;;;;;;4946110;28;20598;-86
2023/03/14 05:25:38;;;;;;;2.03;1.00;;;;;;;;;;4958748;28;20229;-86
2023/03/14 05:28:29;;;;;;;3.57;1.10;;;;;;;;;;4958687;28;20317;-88
2023/03/14 05:31:11;;;;;;;1.70;1.00;;;;;;;;;;4945017;28;20226;-87
2023/03/14 05:33:54;;;;;;;1.40;1.07;;;;;;;;;;4971002;28;20306;-87
2023/03/14 05:36:47;;;;;;;2.50;1.23;;;;;;;;;;4967175;28;20216;-82
2023/03/14 05:39:41;;;;;;;1.53;1.10;;;;;;;;;;4966595;28;20234;-85
2023/03/14 05:42:25;;;;;;;3.00;1.00;;;;;;;;;;4961952;28;20892;-86
2023/03/14 05:45:08;;;;;;;1.33;1.10;;;;;;;;;;4965422;28;20218;-87
2023/03/14 05:48:06;;;;;;;3.33;1.40;;;;;;;;;;4953783;28;20982;-86
2023/03/14 05:50:48;;;;;;;4.27;1.30;;;;;;;;;;4935168;28;20279;-84
2023/03/14 05:53:25;;;;;;;1.57;1.20;;;;;;;;;;4963086;28;20220;-86
2023/03/14 05:55:59;;;;;;;3.63;1.23;;;;;;;;;;4984749;28;20236;-87
2023/03/14 05:58:38;;;;;;;1.70;1.00;;;;;;;;;;4958939;28;20245;-85
2023/03/14 06:01:29;;;;;;;2.17;0.77;;;;;;;;;;4970957;28;20588;-88
2023/03/14 06:04:15;;;;;;;6.30;1.20;;;;;;;;;;4957121;28;20293;-87
2023/03/14 06:06:43;;;;;;;1.73;1.00;;;;;;;;;;4947387;28;20217;-87
2023/03/14 06:09:12;;;;;;;0.73;0.70;;;;;;;;;;4957638;28;20230;-88
2023/03/14 06:11:43;;;;;;;1.77;1.07;;;;;;;;;;4948906;28;20226;-86
2023/03/14 06:14:10;;;;;;;2.97;1.20;;;;;;;;;;4986837;28;20214;-87
2023/03/14 06:16:39;;;;;;;3.27;1.60;;;;;;;;;;4958366;28;20222;-86
2023/03/14 06:19:06;;;;;;;3.50;1.30;;;;;;;;;;4942167;28;20308;-86
2023/03/14 06:21:32;;;;;;;3.00;1.20;;;;;;;;;;4941524;28;20313;-85
2023/03/14 06:23:58;;;;;;;2.77;1.33;;;;;;;;;;4957737;28;20225;-83
2023/03/14 06:26:26;;;;;;;3.03;1.40;;;;;;;;;;4985130;28;20218;-84
2023/03/14 06:28:54;;;;;;;2.63;1.50;;;;;;;;;;4946154;28;20314;-85
2023/03/14 06:31:20;;;;;;;3.17;1.60;;;;;;;;;;4936448;28;20292;-89
2023/03/14 06:33:54;;;;;;;1.70;1.10;;;;;;;;;;4943310;28;20221;-85
2023/03/14 06:36:22;;;;;;;2.57;1.40;;;;;;;;;;4980493;28;20226;-82
2023/03/14 06:38:48;;;;;;;3.27;1.80;;;;;;;;;;4941435;28;20233;-88
2023/03/14 06:41:13;;;;;;;6.23;1.97;;;;;;;;;;4958289;28;20244;-83
2023/03/14 06:43:42;;;;;;;2.83;1.73;;;;;;;;;;4967337;28;20292;-86
2023/03/14 06:46:08;;;;;;;1.47;1.37;;;;;;;;;;4935176;28;20331;-86
2023/03/14 06:48:39;;;;;;;3.77;2.00;;;;;;;;;;4945084;28;20210;-87
2023/03/14 06:51:08;;;;;;;3.37;1.93;;;;;;;;;;4939865;28;20237;-87
2023/03/14 06:53:34;;;;;;;2.37;1.80;;;;;;;;;;4956806;28;20238;-85
2023/03/14 06:56:01;;;;;;;3.73;2.10;;;;;;;;;;4937029;28;20222;-86
2023/03/14 06:58:29;;;;;;;3.30;2.13;;;;;;;;;;4987118;28;20226;-85
2023/03/14 07:00:54;;;;;;;3.53;2.23;;;;;;;;;;4977147;28;20216;-84
2023/03/14 07:03:24;;;;;;;4.80;2.40;;;;;;;;;;4985068;28;20222;-87
2023/03/14 07:05:52;;;;;;;5.20;2.03;;;;;;;;;;4973963;28;20218;-84
2023/03/14 07:08:18;;;;;;;3.60;2.70;;;;;;;;;;4987695;28;20253;-86
2023/03/14 07:10:46;;;;;;;2.93;2.20;;;;;;;;;;4986049;28;20218;-84
2023/03/14 07:13:12;;;;;;;2.63;1.87;;;;;;;;;;4958411;28;20230;-86
2023/03/14 07:15:49;;;;;;;3.30;1.93;;;;;;;;;;4983392;28;20206;-85
2023/03/14 07:18:14;;;;;;;3.63;1.97;;;;;;;;;;4972166;28;20214;-84
2023/03/14 07:20:44;;;;;;;4.83;2.50;;;;;;;;;;4985248;28;20270;-85
2023/03/14 07:23:16;;;;;;;7.73;2.73;;;;;;;;;;4974174;28;20228;-84
2023/03/14 07:25:50;;;;;;;4.33;2.60;;;;;;;;;;4975234;28;20218;-83
2023/03/14 07:28:22;;;;;;;3.13;2.40;;;;;;;;;;4949839;28;20216;-85
2023/03/14 07:30:55;;;;;;;3.13;2.40;;;;;;;;;;4992995;28;20270;-88
2023/03/14 07:33:25;;;;;;;4.03;2.50;;;;;;;;;;5002428;28;20214;-84
2023/03/14 07:35:51;;;;;;;4.67;2.87;;;;;;;;;;4943844;28;20256;-83
2023/03/14 07:38:19;;;;;;;4.87;2.97;;;;;;;;;;4960172;28;20218;-88
2023/03/14 07:41:05;;;;;;;5.10;2.70;;;;;;;;;;4962873;28;20218;-87
2023/03/14 07:43:37;;;;;;;5.60;2.80;;;;;;;;;;4962038;28;20298;-88
2023/03/14 07:46:07;;;;;;;4.67;2.83;;;;;;;;;;4970431;28;20222;-87
2023/03/14 07:48:35;;;;;;;5.77;2.57;;;;;;;;;;4984908;28;20225;-87
2023/03/14 07:51:03;;;;;;;5.17;2.60;;;;;;;;;;4985785;28;20218;-87
2023/03/14 07:53:31;;;;;;;3.87;2.63;;;;;;;;;;4949617;28;21073;-88
2023/03/14 07:55:57;;;;;;;4.50;2.33;;;;;;;;;;4961384;28;20210;-85
2023/03/14 07:58:24;;;;;;;3.80;2.30;;;;;;;;;;4965810;28;20312;-84
2023/03/14 08:00:52;;;;;;;4.53;2.70;;;;;;;;;;4963298;28;20231;-87
2023/03/14 08:03:20;;;;;;;5.23;2.73;;;;;;;;;;4969254;28;20724;-88
2023/03/14 08:05:50;;;;;;;3.87;2.27;;;;;;;;;;4949823;28;20215;-87
2023/03/14 08:08:18;;;;;;;4.13;2.30;;;;;;;;;;4937169;28;20218;-89
2023/03/14 08:10:48;;;;;;;5.57;2.23;;;;;;;;;;4963999;28;20242;-87
2023/03/14 08:13:16;;;;;;;5.70;2.30;;;;;;;;;;4963222;28;20278;-87
2023/03/14 08:15:47;;;;;;;3.87;2.23;;;;;;;;;;4962216;28;20218;-87
2023/03/14 08:18:13;;;;;;;4.60;2.20;;;;;;;;;;4947290;28;20713;-86
2023/03/14 08:20:40;;;;;;;3.00;1.93;;;;;;;;;;4962765;28;20269;-88
2023/03/14 08:23:09;;;;;;;7.23;2.20;;;;;;;;;;4944771;28;20237;-87
2023/03/14 08:25:34;;;;;;;3.90;1.60;;;;;;;;;;4972500;28;20253;-87
2023/03/14 08:28:00;;;;;;;5.50;1.97;;;;;;;;;;4970134;28;20225;-87
2023/03/14 08:30:25;;;;;;;2.93;1.70;;;;;;;;;;4971202;28;20211;-86
2023/03/14 08:32:51;;;;;;;3.80;1.70;;;;;;;;;;4977077;28;20391;-87
2023/03/14 08:35:19;;;;;;;5.50;1.80;;;;;;;;;;4958369;28;20226;-87
2023/03/14 08:37:44;;;;;;;3.10;1.50;;;;;;;;;;4954374;28;20717;-88
2023/03/14 08:40:11;;;;;;;4.10;1.70;;;;;;;;;;4970135;28;20222;-86
2023/03/14 08:42:38;;;;;;;1.97;1.30;;;;;;;;;;4925525;28;20231;-86
2023/03/14 08:45:04;;;;;;;1.50;1.00;;;;;;;;;;4964583;28;20215;-89
2023/03/14 08:47:29;;;;;;;1.67;1.00;;;;;;;;;;4957404;28;20222;-87
2023/03/14 08:49:55;;;;;;;2.80;1.20;;;;;;;;;;4961723;28;20575;-88
2023/03/14 08:52:24;;;;;;;3.60;1.10;;;;;;;;;;4957790;28;20225;-87
2023/03/14 08:54:49;;;;;;;2.83;1.00;;;;;;;;;;4940042;28;20247;-84
2023/03/14 08:57:15;;;;;;;2.37;0.70;;;;;;;;;;4958893;28;20222;-87
2023/03/14 08:59:40;;;;;;;1.57;0.90;;;;;;;;;;4950879;28;20238;-88
2023/03/14 09:02:09;;;;;;;2.00;0.93;;;;;;;;;;4967133;28;20239;-88
2023/03/14 09:04:37;;;;;;;1.70;0.73;;;;;;;;;;4992187;28;20353;-86
2023/03/14 09:07:03;;;;;;;2.67;1.10;;;;;;;;;;4957080;28;20233;-86
2023/03/14 09:09:30;;;;;;;1.57;1.00;;;;;;;;;;4957674;28;20215;-87
2023/03/14 09:11:56;;;;;;;2.93;1.13;;;;;;;;;;4956463;28;20218;-84
2023/03/14 09:14:22;;;;;;;2.33;0.80;;;;;;;;;;4978707;28;20729;-86
2023/03/14 09:16:48;;;;;;;0.70;0.60;;;;;;;;;;4935986;28;20222;-88
2023/03/14 09:19:15;;;;;;;4.67;0.70;;;;;;;;;;4960899;28;20249;-85
2023/03/14 09:21:43;;;;;;;4.33;0.60;;;;;;;;;;4973583;28;20253;-87
2023/03/14 09:24:09;;;;;;;0.83;0.53;;;;;;;;;;4955664;28;20398;-87
2023/03/14 09:26:35;;;;;;;1.90;0.70;;;;;;;;;;4963046;28;20229;-85
2023/03/14 09:29:05;;;;;;;0.73;0.60;;;;;;;;;;4958332;28;20211;-87
2023/03/14 09:31:31;;;;;;;1.50;0.63;;;;;;;;;;4940379;28;20234;-85
2023/03/14 09:33:56;;;;;;;2.13;0.83;;;;;;;;;;4953739;28;20219;-85
2023/03/14 09:36:22;;;;;;;0.60;0.40;;;;;;;;;;4944691;28;20305;-86
2023/03/14 09:38:48;;;;;;;3.50;0.77;;;;;;;;;;4955164;28;20237;-86
2023/03/14 09:41:15;;;;;;;1.57;0.63;;;;;;;;;;4952155;28;20249;-86
2023/03/14 09:43:43;;;;;;;0.60;0.60;;;;;;;;;;4982436;28;20268;-84
2023/03/14 09:46:11;;;;;;;1.13;1.00;;;;;;;;;;4939830;28;20223;-86
2023/03/14 09:48:37;;;;;;;0.70;0.70;;;;;;;;;;4939094;28;20278;-84
2023/03/14 09:51:10;;;;;;;3.40;0.90;;;;;;;;;;4976157;28;20543;-84
2023/03/14 09:53:42;;;;;;;2.60;0.90;;;;;;;;;;4942924;28;20231;-85
2023/03/14 09:56:22;;;;;;;0.67;0.67;;;;;;;;;;4959055;28;20222;-86
2023/03/14 09:59:00;;;;;;;0.47;0.47;;;;;;;;;;4934825;28;20266;-86
2023/03/14 10:01:31;;;;;;;0.60;0.50;;;;;;;;;;4965119;28;20261;-86
2023/03/14 10:04:10;;;;;;;1.20;0.60;;;;;;;;;;4994355;28;20229;-84
2023/03/14 10:06:37;;;;;;;0.77;0.57;;;;;;;;;;4955928;28;20268;-86
2023/03/14 10:09:04;;;;;;;0.80;0.73;;;;;;;;;;4961893;28;20223;-83
2023/03/14 10:11:34;;;;;;;1.03;0.70;;;;;;;;;;4975267;28;20237;-84
2023/03/14 10:14:07;;;;;;;0.97;0.80;;;;;;;;;;4961348;28;20222;-85
2023/03/14 10:16:39;;;;;;;0.70;0.70;;;;;;;;;;4950510;28;20226;-85
2023/03/14 10:19:07;;;;;;;1.13;0.60;;;;;;;;;;4970527;28;20696;-86
2023/03/14 10:21:37;;;;;;;1.20;0.67;;;;;;;;;;4951979;28;20249;-85
2023/03/14 10:24:09;;;;;;;1.37;0.70;;;;;;;;;;4970784;28;20247;-86
2023/03/14 10:26:37;;;;;;;0.70;0.70;;;;;;;;;;4966880;28;20242;-88
2023/03/14 10:29:12;;;;;;;1.77;0.93;;;;;;;;;;4967336;28;20718;-85
2023/03/14 10:31:54;;;;;;;1.13;1.10;;;;;;;;;;4989254;28;20224;-87
2023/03/14 10:34:27;;;;;;;1.07;0.80;;;;;;;;;;4953657;28;20233;-85
2023/03/14 10:36:56;;;;;;;2.50;0.83;;;;;;;;;;4961235;28;20691;-86
2023/03/14 10:39:28;;;;;;;0.40;0.40;;;;;;;;;;4965244;28;20245;-86
2023/03/14 10:42:16;;;;;;;0.73;0.40;;;;;;;;;;4935895;28;20260;-84
2023/03/14 10:44:45;;;;;;;0.50;0.30;;;;;;;;;;4952714;28;20226;-83
2023/03/14 10:47:19;;;;;;;1.20;0.60;;;;;;;;;;4960474;28;20225;-83
2023/03/14 10:49:44;;;;;;;0.57;0.47;;;;;;;;;;4967058;28;20306;-87
2023/03/14 10:52:14;;;;;;;0.93;0.50;;;;;;;;;;4961232;28;20223;-83
2023/03/14 10:54:40;;;;;;;0.50;0.50;;;;;;;;;;4975922;28;20223;-85
2023/03/14 10:57:07;;;;;;;0.70;0.57;;;;;;;;;;4950264;28;20252;-83
2023/03/14 10:59:36;;;;;;;0.73;0.50;;;;;;;;;;4961011;28;20239;-89
2023/03/14 11:02:23;;;;;;;0.87;0.50;;;;;;;;;;4949862;28;20234;-89
2023/03/14 11:04:54;;;;;;;1.10;0.63;;;;;;;;;;4966112;28;20362;-86
2023/03/14 11:07:38;;;;;;;2.60;0.80;;;;;;;;;;4985778;28;20281;-86
2023/03/14 11:10:20;;;;;;;1.07;0.60;;;;;;;;;;4926182;28;20227;-86
2023/03/14 11:13:02;;;;;;;1.23;0.50;;;;;;;;;;4941667;28;20237;-86
2023/03/14 11:15:38;;;;;;;0.53;0.53;;;;;;;;;;4935765;28;20572;-87
2023/03/14 11:18:22;;;;;;;1.70;0.50;;;;;;;;;;4969307;28;20265;-87
2023/03/14 11:21:13;;;;;;;1.10;0.67;;;;;;;;;;4995107;28;20321;-87
2023/03/14 11:24:03;;;;;;;0.73;0.57;;;;;;;;;;4945285;28;20236;-87
2023/03/14 11:26:50;;;;;;;1.03;0.57;;;;;;;;;;4980046;28;20315;-89
2023/03/14 11:29:41;;;;;;;0.60;0.60;;;;;;;;;;4965404;28;20245;-86
2023/03/14 11:32:17;;;;;;;1.03;0.97;;;;;;;;;;4951078;28;20353;-84
2023/03/14 11:34:52;;;;;;;1.07;0.93;;;;;;;;;;4948329;28;20230;-84
2023/03/14 11:37:26;;;;;;;1.90;1.10;;;;;;;;;;4961759;28;20334;-86
2023/03/14 11:39:56;;;;;;;0.70;0.70;;;;;;;;;;4935312;29;20239;-86
2023/03/14 11:42:22;;;;;;;0.80;0.80;;;;;;;;;;4954895;28;20305;-86
2023/03/14 11:44:52;;;;;;;0.87;0.70;;;;;;;;;;4941193;28;20415;-85
2023/03/14 11:47:24;;;;;;;1.00;0.90;;;;;;;;;;4959231;28;20225;-87
2023/03/14 11:50:18;;;;;;;1.07;1.00;;;;;;;;;;4965589;28;20231;-88
2023/03/14 11:53:06;;;;;;;1.00;0.80;;;;;;;;;;4951120;28;20226;-89
2023/03/14 11:55:35;;;;;;;0.90;0.90;;;;;;;;;;4954214;28;20222;-85
2023/03/14 11:58:22;;;;;;;2.30;1.10;;;;;;;;;;4975797;28;20226;-88
2023/03/14 12:00:48;;;;;;;1.20;1.20;;;;;;;;;;4983503;28;20269;-85
2023/03/14 12:03:35;;;;;;;1.40;1.30;;;;;;;;;;4939746;28;20233;-85
2023/03/14 12:06:42;;;;;;;0.20;0.20;;;;;;;;;;4939810;28;20242;-87
2023/03/14 12:09:10;;;;;;;0.10;0.10;;;;;;;;;;4971644;28;20746;-85
2023/03/14 12:11:56;;;;;;;0.10;0.10;;;;;;;;;;4992316;28;20253;-86
2023/03/14 12:14:32;;;;;;;0.40;0.40;;;;;;;;;;4942124;28;20229;-85
2023/03/14 12:17:09;;;;;;;0.10;0.10;;;;;;;;;;4961473;28;20238;-83
2023/03/14 12:19:38;;;;;;;0.10;0.10;;;;;;;;;;4995236;28;20233;-88
2023/03/14 12:22:23;;;;;;;0.10;0.10;;;;;;;;;;4954691;28;20238;-85
2023/03/14 12:25:04;;;;;;;0.10;0.10;;;;;;;;;;4942955;28;20229;-85
2023/03/14 12:27:48;;;;;;;0.10;0.10;;;;;;;;;;4954674;28;20225;-82
2023/03/14 12:30:37;;;;;;;0.10;0.10;;;;;;;;;;4982260;28;20249;-85
2023/03/14 12:33:08;;;;;;;0.20;0.20;;;;;;;;;;4971209;28;20238;-88
2023/03/14 12:35:41;;;;;;;0.10;0.10;;;;;;;;;;4989241;28;20235;-85
2023/03/14 12:38:13;;;;;;;0.10;0.10;;;;;;;;;;4976340;28;20230;-85
2023/03/14 12:40:57;;;;;;;0.10;0.10;;;;;;;;;;4977521;28;20222;-85
2023/03/14 12:43:33;;;;;;;0.10;0.10;;;;;;;;;;4983067;28;21760;-86
2023/03/14 12:46:21;;;;;;;0.10;0.10;;;;;;;;;;4954095;28;20225;-86
2023/03/14 12:48:54;;;;;;;0.10;0.10;;;;;;;;;;4991901;28;20668;-89
2023/03/14 12:51:34;;;;;;;0.10;0.10;;;;;;;;;;4979434;28;20225;-84
2023/03/14 12:54:15;;;;;;;0.10;0.10;;;;;;;;;;4996153;28;20233;-87
2023/03/14 12:57:19;;;;;;;0.10;0.10;;;;;;;;;;4975713;28;20230;-88
2023/03/14 12:59:51;;;;;;;0.10;0.10;;;;;;;;;;4973346;28;20238;-86
2023/03/14 13:02:45;;;;;;;0.10;0.10;;;;;;;;;;4971919;28;20230;-86
2023/03/14 13:05:15;;;;;;;0.10;0.10;;;;;;;;;;4952101;28;20674;-88
2023/03/14 13:07:46;;;;;;;0.10;0.10;;;;;;;;;;4964722;28;20229;-88
2023/03/14 13:10:29;;;;;;;0.10;0.10;;;;;;;;;;4978936;28;20795;-88
2023/03/14 13:13:03;;;;;;;0.00;0.00;;;;;;;;;;4977748;28;20230;-88
2023/03/14 13:15:34;;;;;;;0.10;0.10;;;;;;;;;;4945276;28;20226;-89
2023/03/14 13:18:09;;;;;;;0.10;0.10;;;;;;;;;;4972101;28;20218;-89
2023/03/14 13:20:36;;;;;;;0.00;0.00;;;;;;;;;;4943181;28;20253;-87
2023/03/14 13:23:02;;;;;;;0.10;0.10;;;;;;;;;;4968739;28;20278;-87
2023/03/14 13:25:34;;;;;;;0.07;0.07;;;;;;;;;;4966234;28;20300;-89
2023/03/14 13:28:03;;;;;;;0.10;0.10;;;;;;;;;;4971628;28;20215;-89
2023/03/14 13:30:36;;;;;;;0.10;0.10;;;;;;;;;;4949719;28;20252;-87
2023/03/14 13:33:03;;;;;;;0.10;0.10;;;;;;;;;;4929142;28;20750;-89
2023/03/14 13:35:40;;;;;;;0.10;0.10;;;;;;;;;;4944639;28;20230;-86
2023/03/14 13:38:17;;;;;;;0.10;0.10;;;;;;;;;;4955035;28;20218;-87
2023/03/14 13:40:47;;;;;;;0.00;0.00;;;;;;;;;;4989493;28;20234;-87
2023/03/14 13:43:14;;;;;;;0.10;0.10;;;;;;;;;;4967194;28;20593;-85
2023/03/14 13:46:06;;;;;;;0.40;0.40;;;;;;;;;;4959460;28;20222;-86
2023/03/14 13:48:40;;;;;;;0.20;0.20;;;;;;;;;;4969710;28;20226;-87
2023/03/14 13:51:09;;;;;;;0.10;0.10;;;;;;;;;;4962310;28;20255;-86
2023/03/14 13:53:49;;;;;;;0.37;0.37;;;;;;;;;;4983109;28;20225;-83
2023/03/14 13:56:23;;;;;;;0.00;0.00;;;;;;;;;;4970776;28;20594;-86
2023/03/14 13:58:48;;;;;;;0.10;0.10;;;;;;;;;;4975646;28;20310;-87
2023/03/14 14:01:20;;;;;;;0.43;0.43;;;;;;;;;;4936458;28;20246;-85
2023/03/14 14:03:49;;;;;;;10.23;1.27;;;;;;;;;;4951727;28;20711;-85
2023/03/14 14:06:37;;;;;;;10.67;2.60;;;;;;;;;;4977323;28;20286;-85
2023/03/14 14:09:19;;;;;;;10.07;4.30;;;;;;;;;;4949262;28;20256;-86
2023/03/14 14:11:48;;;;;;;9.13;1.97;;;;;;;;;;4938628;28;20288;-82
2023/03/14 14:14:20;;;;;;;7.50;1.50;;;;;;;;;;4951279;28;20282;-87
2023/03/14 14:16:48;;;;;;;5.53;1.90;;;;;;;;;;4975929;28;20226;-86
2023/03/14 14:19:14;;;;;;;3.77;1.50;;;;;;;;;;4958896;28;20623;-83
2023/03/14 14:21:39;;;;;;;4.93;1.37;;;;;;;;;;4955489;28;20284;-87
2023/03/14 14:24:06;;;;;;;5.37;1.40;;;;;;;;;;4961000;28;20234;-87
2023/03/14 14:26:31;;;;;;;5.83;1.40;;;;;;;;;;4976376;28;20222;-82
2023/03/14 14:29:04;;;;;;;5.63;2.00;;;;;;;;;;4968545;28;20215;-83
2023/03/14 14:31:32;;;;;;;5.03;1.40;;;;;;;;;;4989782;28;20308;-86
2023/03/14 14:33:59;;;;;;;3.87;1.10;;;;;;;;;;4963867;28;20711;-87
2023/03/14 14:36:39;;;;;;;3.93;1.43;;;;;;;;;;4962574;28;20241;-85
2023/03/14 14:39:23;;;;;;;3.87;1.60;;;;;;;;;;4975441;28;20234;-86
2023/03/14 14:41:50;;;;;;;4.70;1.30;;;;;;;;;;4993997;28;20378;-88
2023/03/14 14:44:24;;;;;;;2.93;1.30;;;;;;;;;;4975893;28;20214;-87
2023/03/14 14:46:55;;;;;;;4.47;1.70;;;;;;;;;;4981319;28;20237;-87
2023/03/14 14:49:21;;;;;;;6.80;1.70;;;;;;;;;;4928670;28;20214;-86
2023/03/14 14:51:50;;;;;;;3.93;1.13;;;;;;;;;;4968537;28;20287;-88
2023/03/14 14:54:17;;;;;;;4.33;1.20;;;;;;;;;;4954607;28;20695;-87
2023/03/14 14:56:48;;;;;;;4.80;1.77;;;;;;;;;;4971382;28;20234;-85
2023/03/14 14:59:30;;;;;;;4.87;1.27;;;;;;;;;;4954636;28;20261;-87
2023/03/14 15:02:00;;;;;;;2.77;1.10;;;;;;;;;;4974762;28;20234;-87
2023/03/14 15:04:26;;;;;;;3.80;1.47;;;;;;;;;;4949188;28;20229;-88
2023/03/14 15:06:52;;;;;;;4.87;1.23;;;;;;;;;;4973066;28;20702;-87
2023/03/14 15:09:20;;;;;;;2.63;1.13;;;;;;;;;;4969039;28;20222;-86
2023/03/14 15:11:46;;;;;;;3.43;1.50;;;;;;;;;;4965195;28;20231;-86